Time;durP1;ratioP1;P1;durP2;ratioP2;P2;SDS_P1;SDS_P2;PMS_P1;PMS_P2;Temp;Humidity;BMP_temperature;BMP_pressure;BME280_temperature;BME280_humidity;BME280_pressure;Samples;Min_cycle;Max_cycle;Signal;HPM_P1;HPM_P2
2021/12/22 00:02:25;;;;;;;11.07;5.73;;;-2.40;99.90;;;;;;4984442;28;20478;-70
2021/12/22 00:04:53;;;;;;;9.77;5.07;;;-2.40;99.90;;;;;;4978924;28;20896;-70
2021/12/22 00:07:20;;;;;;;11.20;5.33;;;-2.40;99.90;;;;;;4984611;28;20456;-71
2021/12/22 00:09:46;;;;;;;11.43;4.97;;;-2.40;99.90;;;;;;4988013;28;20513;-70
2021/12/22 00:12:13;;;;;;;9.17;5.10;;;-2.50;99.90;;;;;;4988522;28;20467;-70
2021/12/22 00:14:40;;;;;;;10.33;4.80;;;-2.50;99.90;;;;;;4989001;28;21022;-70
2021/12/22 00:17:06;;;;;;;11.47;6.07;;;-2.40;99.90;;;;;;4976369;28;21850;-71
2021/12/22 00:19:33;;;;;;;10.93;5.30;;;-2.30;99.90;;;;;;4979040;28;20449;-70
2021/12/22 00:22:00;;;;;;;10.63;5.30;;;-2.40;99.90;;;;;;4987353;28;20492;-70
2021/12/22 00:24:27;;;;;;;11.70;5.17;;;-2.40;99.90;;;;;;4986721;28;20519;-73
2021/12/22 00:26:54;;;;;;;9.83;5.23;;;-2.40;99.90;;;;;;4981542;28;20949;-70
2021/12/22 00:29:21;;;;;;;10.27;4.63;;;-2.50;99.90;;;;;;4979059;28;20455;-73
2021/12/22 00:32:07;;;;;;;11.57;5.60;;;-2.70;99.90;;;;;;4986757;28;20453;-70
2021/12/22 00:34:34;;;;;;;9.53;4.43;;;-2.70;99.90;;;;;;4986220;28;20473;-70
2021/12/22 00:37:01;;;;;;;8.50;4.03;;;-2.80;99.90;;;;;;4982310;28;20945;-70
2021/12/22 00:39:27;;;;;;;11.53;4.43;;;-2.70;99.90;;;;;;4985642;28;20910;-72
2021/12/22 00:41:54;;;;;;;9.43;4.80;;;-2.70;99.90;;;;;;4988131;28;20517;-74
2021/12/22 00:44:22;;;;;;;10.37;4.63;;;-2.70;99.90;;;;;;4985812;28;20486;-71
2021/12/22 00:46:49;;;;;;;11.27;5.33;;;-2.70;99.90;;;;;;4977419;28;20882;-70
2021/12/22 00:49:16;;;;;;;11.80;5.57;;;-2.70;99.90;;;;;;4993448;28;20460;-70
2021/12/22 00:51:42;;;;;;;9.67;4.20;;;-2.70;99.90;;;;;;4984579;28;20459;-71
2021/12/22 00:54:09;;;;;;;13.27;5.27;;;-2.60;99.90;;;;;;4984355;28;20540;-69
2021/12/22 00:56:37;;;;;;;8.97;4.57;;;-2.60;99.90;;;;;;4984946;28;20444;-70
2021/12/22 00:59:04;;;;;;;8.83;4.27;;;-2.60;99.90;;;;;;4989496;28;20811;-70
2021/12/22 01:01:31;;;;;;;9.13;3.83;;;-2.60;99.90;;;;;;4990134;28;20848;-71
2021/12/22 01:03:58;;;;;;;11.10;4.13;;;-2.70;99.90;;;;;;4986973;28;20496;-71
2021/12/22 01:06:26;;;;;;;8.00;4.80;;;-2.70;99.90;;;;;;4987238;28;20891;-71
2021/12/22 01:08:57;;;;;;;9.57;4.17;;;-2.70;99.90;;;;;;4985796;28;21026;-70
2021/12/22 01:11:23;;;;;;;11.50;4.70;;;-2.70;99.90;;;;;;4985849;28;20452;-69
2021/12/22 01:13:50;;;;;;;9.67;3.80;;;-2.70;99.90;;;;;;4981580;28;20486;-71
2021/12/22 01:16:17;;;;;;;11.13;4.73;;;-2.80;99.90;;;;;;4989537;28;20456;-73
2021/12/22 01:18:44;;;;;;;11.53;4.90;;;-2.80;99.90;;;;;;4986267;28;20538;-67
2021/12/22 01:26:41;;;;;;;13.07;5.87;;;-2.80;99.90;;;;;;4982312;28;20471;-69
2021/12/22 01:29:08;;;;;;;11.90;5.47;;;-2.80;99.90;;;;;;4988193;28;20463;-69
2021/12/22 01:31:34;;;;;;;12.40;5.60;;;-2.80;99.90;;;;;;4985052;28;20449;-70
2021/12/22 01:34:01;;;;;;;10.13;4.13;;;-2.80;99.90;;;;;;4986874;28;20484;-72
2021/12/22 01:36:28;;;;;;;11.47;4.83;;;-2.80;99.90;;;;;;4990854;28;20461;-72
2021/12/22 01:38:55;;;;;;;10.23;4.83;;;-2.80;99.90;;;;;;4990370;28;20466;-69
2021/12/22 01:41:22;;;;;;;9.80;4.63;;;-2.70;99.90;;;;;;4988837;28;20450;-71
2021/12/22 01:43:49;;;;;;;8.53;4.53;;;-2.60;99.90;;;;;;4989191;28;20492;-70
2021/12/22 01:49:09;;;;;;;11.67;4.27;;;-2.50;99.90;;;;;;4988428;28;20464;-72
2021/12/22 01:49:43;;;;;;;9.20;4.47;;;-2.50;99.90;;;;;;4984480;28;20464;-69
2021/12/22 01:52:10;;;;;;;8.33;4.17;;;-2.70;99.90;;;;;;4978552;28;20865;-70
2021/12/22 01:54:50;;;;;;;8.07;3.80;;;-2.90;99.90;;;;;;4987772;28;20862;-72
2021/12/22 01:57:19;;;;;;;5.80;4.00;;;-3.00;99.90;;;;;;4982087;28;20462;-69
2021/12/22 01:59:47;;;;;;;8.23;3.97;;;-3.20;99.90;;;;;;4985558;28;20994;-69
2021/12/22 02:02:15;;;;;;;10.53;4.07;;;-3.20;99.90;;;;;;4984686;28;20448;-69
2021/12/22 02:04:42;;;;;;;5.87;3.20;;;-3.20;99.90;;;;;;4990971;28;20468;-71
2021/12/22 02:07:10;;;;;;;7.13;3.53;;;-3.20;99.90;;;;;;4988904;28;20498;-69
2021/12/22 02:12:26;;;;;;;9.70;3.87;;;-3.00;99.90;;;;;;4984897;28;20455;-73
2021/12/22 02:14:53;;;;;;;6.67;4.03;;;-3.00;99.90;;;;;;4980923;28;20460;-68
2021/12/22 02:17:20;;;;;;;9.27;3.73;;;-2.90;99.90;;;;;;4981280;28;20456;-72
2021/12/22 02:19:48;;;;;;;11.60;4.00;;;-3.00;99.90;;;;;;4986556;28;20463;-70
2021/12/22 02:22:16;;;;;;;10.67;4.03;;;-3.10;99.90;;;;;;4986432;28;20957;-69
2021/12/22 02:24:52;;;;;;;6.10;2.87;;;-3.00;99.90;;;;;;4986286;28;21006;-72
2021/12/22 02:27:31;;;;;;;8.47;3.23;;;-2.90;99.90;;;;;;4984176;28;20475;-70
2021/12/22 02:30:02;;;;;;;5.67;3.20;;;-2.90;99.90;;;;;;4987460;28;20474;-70
2021/12/22 02:35:04;;;;;;;7.43;3.73;;;-2.90;99.90;;;;;;4987145;28;20976;-70
2021/12/22 02:37:41;;;;;;;4.57;2.60;;;-2.90;99.90;;;;;;4989096;28;20443;-71
2021/12/22 02:40:11;;;;;;;5.40;2.40;;;-3.00;99.90;;;;;;4984871;28;21018;-71
2021/12/22 02:42:38;;;;;;;8.27;4.10;;;-3.00;99.90;;;;;;4987307;28;20532;-73
2021/12/22 02:45:09;;;;;;;9.47;4.20;;;-2.80;99.90;;;;;;4989765;28;20477;-70
2021/12/22 02:47:36;;;;;;;6.90;3.70;;;-2.70;99.90;;;;;;4988246;28;20459;-70
2021/12/22 02:50:05;;;;;;;9.20;2.70;;;-2.70;99.90;;;;;;4981021;28;20448;-69
2021/12/22 02:52:42;;;;;;;8.53;3.60;;;-2.60;99.90;;;;;;4987975;28;20450;-69
2021/12/22 02:55:09;;;;;;;6.47;3.77;;;-2.70;99.90;;;;;;4981926;28;20452;-73
2021/12/22 02:57:45;;;;;;;8.33;3.80;;;-2.70;99.90;;;;;;4989721;28;20520;-71
2021/12/22 03:05:28;;;;;;;9.47;3.93;;;-2.70;99.90;;;;;;4989643;28;20448;-72
2021/12/22 03:07:55;;;;;;;10.57;4.00;;;-2.70;99.90;;;;;;4987141;28;20440;-69
2021/12/22 03:10:22;;;;;;;9.23;4.30;;;-2.80;99.90;;;;;;4988266;28;20519;-70
2021/12/22 03:13:00;;;;;;;6.23;3.73;;;-2.90;99.90;;;;;;4984192;28;20899;-70
2021/12/22 03:15:27;;;;;;;8.77;3.90;;;-3.00;99.90;;;;;;4987262;28;20855;-70
2021/12/22 03:17:54;;;;;;;9.33;3.10;;;-3.00;99.90;;;;;;4988593;28;20971;-70
2021/12/22 03:20:20;;;;;;;5.73;3.10;;;-3.00;99.90;;;;;;4989129;28;20455;-71
2021/12/22 03:22:47;;;;;;;5.93;2.93;;;-3.10;99.90;;;;;;4986943;28;20488;-70
2021/12/22 03:25:17;;;;;;;6.67;3.20;;;-3.20;99.90;;;;;;4987723;28;20464;-70
2021/12/22 03:27:49;;;;;;;7.83;4.17;;;-3.10;99.90;;;;;;4984365;28;20462;-68
2021/12/22 03:30:21;;;;;;;8.47;4.30;;;-3.00;99.90;;;;;;4980598;28;20455;-69
2021/12/22 03:32:48;;;;;;;10.17;4.07;;;-2.90;99.90;;;;;;4981201;28;20456;-69
2021/12/22 03:35:18;;;;;;;9.87;3.80;;;-2.90;99.90;;;;;;4986751;28;20506;-70
2021/12/22 03:37:49;;;;;;;10.00;3.80;;;-3.00;99.90;;;;;;4986549;28;20460;-69
2021/12/22 03:40:17;;;;;;;8.77;4.20;;;-3.20;99.90;;;;;;4984143;28;20507;-71
2021/12/22 03:42:43;;;;;;;5.37;3.67;;;-3.30;99.90;;;;;;4985136;28;20452;-66
2021/12/22 03:45:10;;;;;;;9.73;4.10;;;-3.30;99.90;;;;;;4987219;28;20475;-72
2021/12/22 03:47:37;;;;;;;8.10;4.30;;;-3.20;99.90;;;;;;4984008;28;20449;-70
2021/12/22 03:50:07;;;;;;;7.83;4.40;;;-3.00;99.90;;;;;;4986096;28;20441;-70
2021/12/22 03:52:34;;;;;;;8.87;4.43;;;-3.10;99.90;;;;;;4987997;28;20471;-72
2021/12/22 03:55:01;;;;;;;9.57;4.13;;;-3.10;99.90;;;;;;4989917;28;20468;-70
2021/12/22 03:57:29;;;;;;;7.87;4.17;;;-3.10;99.90;;;;;;4996472;28;20870;-70
2021/12/22 03:59:59;;;;;;;7.80;3.77;;;-3.30;99.90;;;;;;4984457;28;20456;-70
2021/12/22 04:02:27;;;;;;;7.20;4.27;;;-3.30;99.90;;;;;;4987690;28;20470;-73
2021/12/22 04:04:55;;;;;;;8.27;4.10;;;-3.20;99.90;;;;;;4984175;28;20515;-69
2021/12/22 04:07:22;;;;;;;8.83;4.57;;;-3.30;99.90;;;;;;4987917;28;20452;-70
2021/12/22 04:09:49;;;;;;;9.97;4.27;;;-3.30;99.90;;;;;;4988454;28;20523;-69
2021/12/22 04:12:15;;;;;;;7.40;4.00;;;-3.20;99.90;;;;;;4989379;28;20447;-72
2021/12/22 04:14:42;;;;;;;9.03;4.20;;;-3.00;99.90;;;;;;4981594;28;20502;-71
2021/12/22 04:17:09;;;;;;;9.57;4.20;;;-3.10;99.90;;;;;;4978767;28;20462;-70
2021/12/22 04:19:35;;;;;;;11.13;3.97;;;-3.10;99.90;;;;;;4984260;28;20502;-72
2021/12/22 04:22:04;;;;;;;7.13;3.83;;;-3.00;99.90;;;;;;4988475;28;20456;-71
2021/12/22 04:24:31;;;;;;;8.17;3.87;;;-3.10;99.90;;;;;;4980363;28;21000;-71
2021/12/22 04:26:58;;;;;;;8.80;3.80;;;-3.10;99.90;;;;;;4987255;28;20475;-70
2021/12/22 04:29:25;;;;;;;9.93;4.03;;;-3.20;99.90;;;;;;4979173;28;20468;-72
2021/12/22 04:31:51;;;;;;;8.57;4.13;;;-3.20;99.90;;;;;;4988712;28;20981;-70
2021/12/22 04:34:18;;;;;;;7.63;4.30;;;-3.20;99.90;;;;;;4986396;28;21058;-70
2021/12/22 04:36:45;;;;;;;7.93;4.30;;;-3.30;99.90;;;;;;4992684;28;20454;-69
2021/12/22 04:39:11;;;;;;;8.90;4.03;;;-3.40;99.90;;;;;;4989379;28;20469;-72
2021/12/22 04:41:38;;;;;;;7.50;4.07;;;-3.30;99.90;;;;;;4987920;28;20956;-70
2021/12/22 04:44:05;;;;;;;7.13;4.50;;;-3.30;99.90;;;;;;4991509;28;20483;-70
2021/12/22 04:46:32;;;;;;;11.00;4.70;;;-3.20;99.90;;;;;;4989835;28;20455;-71
2021/12/22 04:48:59;;;;;;;6.60;4.00;;;-3.30;99.90;;;;;;4989336;28;20449;-73
2021/12/22 04:51:29;;;;;;;7.77;3.97;;;-3.20;99.90;;;;;;4982699;28;20452;-70
2021/12/22 04:55:03;;;;;;;9.03;4.50;;;-3.30;99.90;;;;;;4990280;28;21077;-72
2021/12/22 04:56:54;;;;;;;8.33;4.50;;;-3.20;99.90;;;;;;4983480;28;20517;-70
2021/12/22 04:59:21;;;;;;;11.43;4.27;;;-3.20;99.90;;;;;;4991097;28;20456;-70
2021/12/22 05:01:48;;;;;;;9.40;4.30;;;-3.20;99.90;;;;;;4987918;28;20471;-69
2021/12/22 05:04:15;;;;;;;8.37;4.20;;;-3.10;99.90;;;;;;4991686;28;20479;-73
2021/12/22 05:06:41;;;;;;;6.23;3.63;;;-3.00;99.90;;;;;;4985433;28;20859;-70
2021/12/22 05:09:08;;;;;;;8.63;4.47;;;-2.90;99.90;;;;;;4990908;28;20443;-70
2021/12/22 05:11:35;;;;;;;7.77;4.20;;;-3.10;99.90;;;;;;4989929;28;20453;-70
2021/12/22 05:14:03;;;;;;;8.67;4.00;;;-3.30;99.90;;;;;;4989557;28;20472;-70
2021/12/22 05:16:30;;;;;;;11.40;4.87;;;-3.40;99.90;;;;;;4987011;28;20450;-69
2021/12/22 05:19:00;;;;;;;8.90;4.17;;;-3.40;99.90;;;;;;4986337;28;20452;-70
2021/12/22 05:21:26;;;;;;;8.03;4.30;;;-3.40;99.90;;;;;;4989102;28;21117;-70
2021/12/22 05:23:55;;;;;;;7.53;4.23;;;-3.40;99.90;;;;;;4989223;28;20480;-71
2021/12/22 05:26:22;;;;;;;9.47;4.33;;;-3.50;99.90;;;;;;4991608;28;20523;-70
2021/12/22 05:28:49;;;;;;;10.03;4.60;;;-3.60;99.90;;;;;;4985837;28;20449;-72
2021/12/22 05:31:16;;;;;;;9.00;5.10;;;-3.70;99.90;;;;;;4987914;28;20448;-69
2021/12/22 05:33:42;;;;;;;9.87;4.77;;;-3.60;99.90;;;;;;4986951;28;20483;-69
2021/12/22 05:36:10;;;;;;;12.93;5.07;;;-3.40;99.90;;;;;;4985502;28;20495;-70
2021/12/22 05:38:36;;;;;;;8.80;4.73;;;-3.30;99.90;;;;;;4987907;28;20863;-70
2021/12/22 05:41:03;;;;;;;16.87;5.60;;;-3.40;99.90;;;;;;4987053;28;20684;-73
2021/12/22 05:43:30;;;;;;;13.23;5.17;;;-3.30;99.90;;;;;;4988834;28;20491;-69
2021/12/22 05:45:57;;;;;;;9.80;5.00;;;-3.30;99.90;;;;;;4987535;28;20452;-69
2021/12/22 05:48:24;;;;;;;14.27;5.63;;;-3.40;99.90;;;;;;4986748;28;20491;-72
2021/12/22 05:50:53;;;;;;;10.30;5.87;;;-3.50;99.90;;;;;;4984483;28;20453;-69
2021/12/22 05:53:20;;;;;;;12.20;6.20;;;-3.50;99.90;;;;;;4985624;28;20484;-72
2021/12/22 05:55:46;;;;;;;12.50;5.97;;;-3.40;99.90;;;;;;4990755;28;20460;-69
2021/12/22 05:58:14;;;;;;;10.73;5.07;;;-3.40;99.90;;;;;;4990460;28;20475;-69
2021/12/22 06:00:41;;;;;;;11.73;6.27;;;-3.20;99.90;;;;;;4983689;28;20460;-72
2021/12/22 06:03:10;;;;;;;12.47;5.83;;;-3.20;99.90;;;;;;4990335;28;20464;-69
2021/12/22 06:05:37;;;;;;;12.27;6.07;;;-3.30;99.90;;;;;;4992084;28;20794;-69
2021/12/22 06:08:04;;;;;;;11.83;5.93;;;-3.40;99.90;;;;;;4988919;28;20457;-72
2021/12/22 06:10:34;;;;;;;12.77;6.30;;;-3.60;99.90;;;;;;4985437;28;20459;-71
2021/12/22 06:13:05;;;;;;;16.50;7.20;;;-3.60;99.90;;;;;;4988048;28;20479;-69
2021/12/22 06:15:34;;;;;;;16.57;6.60;;;-3.30;99.90;;;;;;4986383;28;20452;-69
2021/12/22 06:18:05;;;;;;;15.40;6.20;;;-3.40;99.90;;;;;;4983522;28;20457;-72
2021/12/22 06:20:33;;;;;;;14.40;7.00;;;-3.50;99.90;;;;;;4981139;28;20453;-69
2021/12/22 06:23:00;;;;;;;16.03;6.77;;;-3.50;99.90;;;;;;4987196;28;20456;-70
2021/12/22 06:25:27;;;;;;;15.53;6.23;;;-3.60;99.90;;;;;;4992404;28;20483;-68
2021/12/22 06:27:54;;;;;;;14.90;6.53;;;-3.60;99.90;;;;;;4987487;28;20859;-69
2021/12/22 06:30:21;;;;;;;16.60;6.57;;;-3.70;99.90;;;;;;4992467;28;20483;-70
2021/12/22 06:32:49;;;;;;;12.50;6.13;;;-3.70;99.90;;;;;;4995439;28;20451;-69
2021/12/22 06:35:16;;;;;;;13.73;6.07;;;-3.80;99.90;;;;;;4987622;28;20456;-70
2021/12/22 06:37:44;;;;;;;13.53;5.90;;;-3.80;99.90;;;;;;4988417;28;20536;-72
2021/12/22 06:40:12;;;;;;;10.60;5.87;;;-3.70;99.90;;;;;;4996517;28;20475;-67
2021/12/22 06:42:39;;;;;;;12.47;5.50;;;-3.70;99.90;;;;;;4990739;28;20483;-71
2021/12/22 06:45:09;;;;;;;11.20;5.97;;;-3.60;99.90;;;;;;4982276;28;20481;-69
2021/12/22 06:47:36;;;;;;;11.53;5.90;;;-3.50;99.90;;;;;;4982545;28;20494;-71
2021/12/22 06:50:05;;;;;;;14.40;6.30;;;-3.60;99.90;;;;;;4989122;28;20500;-68
2021/12/22 06:52:33;;;;;;;15.27;6.30;;;-3.60;99.90;;;;;;4980943;28;20456;-69
2021/12/22 06:55:00;;;;;;;17.90;6.33;;;-3.70;99.90;;;;;;4981347;28;20467;-71
2021/12/22 06:57:29;;;;;;;13.07;6.20;;;-3.80;99.90;;;;;;4991049;28;20462;-69
2021/12/22 06:59:58;;;;;;;12.93;6.07;;;-3.50;99.90;;;;;;4986060;28;20455;-72
2021/12/22 07:02:26;;;;;;;15.23;6.27;;;-3.60;99.90;;;;;;4975105;28;20448;-70
2021/12/22 07:04:53;;;;;;;14.50;6.63;;;-3.80;99.90;;;;;;4986689;28;20483;-69
2021/12/22 07:07:19;;;;;;;10.47;6.10;;;-3.70;99.90;;;;;;4983191;28;20452;-69
2021/12/22 07:09:46;;;;;;;10.53;5.60;;;-3.70;99.90;;;;;;4983921;28;20460;-70
2021/12/22 07:12:13;;;;;;;11.70;6.00;;;-3.60;99.90;;;;;;4981950;28;20452;-67
2021/12/22 07:14:39;;;;;;;10.97;6.17;;;-3.50;99.90;;;;;;4985523;28;20483;-70
2021/12/22 07:17:07;;;;;;;12.20;5.80;;;-3.40;99.90;;;;;;4986740;28;20442;-68
2021/12/22 07:19:34;;;;;;;12.87;6.53;;;-3.40;99.90;;;;;;4986773;28;20456;-68
2021/12/22 07:22:01;;;;;;;14.13;6.20;;;-3.50;99.90;;;;;;4982392;28;20455;-69
2021/12/22 07:24:27;;;;;;;11.53;6.03;;;-3.60;99.90;;;;;;4982017;28;20486;-68
2021/12/22 07:26:54;;;;;;;14.33;7.00;;;-3.70;99.90;;;;;;4989204;28;20460;-71
2021/12/22 07:29:21;;;;;;;12.50;6.83;;;-3.60;99.90;;;;;;4988191;28;20475;-72
2021/12/22 07:31:47;;;;;;;13.33;7.17;;;-3.50;99.90;;;;;;4987453;28;20479;-67
2021/12/22 07:34:41;;;;;;;15.40;7.10;;;-3.40;99.90;;;;;;4988121;28;20476;-68
2021/12/22 07:37:31;;;;;;;16.93;7.80;;;-3.40;99.90;;;;;;4986050;28;20488;-69
2021/12/22 07:39:58;;;;;;;16.10;7.60;;;-3.60;99.90;;;;;;4983731;28;20879;-68
2021/12/22 07:42:24;;;;;;;16.30;7.27;;;-3.60;99.90;;;;;;4984144;28;20460;-68
2021/12/22 07:44:51;;;;;;;17.27;8.30;;;-3.70;99.90;;;;;;4982609;28;21202;-70
2021/12/22 07:47:18;;;;;;;16.80;9.27;;;-3.70;99.90;;;;;;4983027;28;20448;-70
2021/12/22 07:49:44;;;;;;;20.83;9.60;;;-3.80;99.90;;;;;;4981725;28;20506;-68
2021/12/22 07:52:11;;;;;;;18.10;8.40;;;-3.70;99.90;;;;;;4985831;28;20456;-67
2021/12/22 07:54:39;;;;;;;22.67;9.37;;;-3.50;99.90;;;;;;4986319;28;20476;-70
2021/12/22 07:57:06;;;;;;;18.30;8.57;;;-3.50;99.90;;;;;;4987657;28;20547;-69
2021/12/22 07:59:33;;;;;;;20.60;8.37;;;-3.50;99.90;;;;;;4984620;28;20460;-67
2021/12/22 08:02:00;;;;;;;19.30;9.00;;;-3.40;99.90;;;;;;4985115;28;20452;-66
2021/12/22 08:04:28;;;;;;;18.37;8.60;;;-3.40;99.90;;;;;;4986962;28;20488;-67
2021/12/22 08:06:55;;;;;;;15.90;8.70;;;-3.10;99.90;;;;;;4993487;28;20452;-68
2021/12/22 08:09:26;;;;;;;16.83;8.17;;;-2.90;99.90;;;;;;4991691;28;20538;-70
2021/12/22 08:11:54;;;;;;;15.23;7.83;;;-2.90;99.90;;;;;;4991211;28;20448;-67
2021/12/22 08:14:23;;;;;;;16.70;8.53;;;-2.90;99.90;;;;;;4990853;28;20480;-68
2021/12/22 08:16:51;;;;;;;20.43;8.87;;;-2.90;99.90;;;;;;4991414;28;20968;-68
2021/12/22 08:19:17;;;;;;;13.57;7.87;;;-2.80;99.90;;;;;;4993480;28;20988;-67
2021/12/22 08:21:44;;;;;;;17.07;8.00;;;-2.80;99.90;;;;;;4984872;28;20591;-67
2021/12/22 08:24:11;;;;;;;15.73;8.43;;;-2.80;99.90;;;;;;4990091;28;20991;-67
2021/12/22 08:26:38;;;;;;;16.17;7.90;;;-2.70;99.90;;;;;;4990236;28;20468;-69
2021/12/22 08:29:04;;;;;;;17.77;6.67;;;-2.50;99.90;;;;;;4982398;28;20983;-68
2021/12/22 08:31:32;;;;;;;14.80;6.63;;;-2.60;99.90;;;;;;4994688;28;20438;-67
2021/12/22 08:33:58;;;;;;;14.13;6.97;;;-2.60;99.90;;;;;;4994187;28;20505;-71
2021/12/22 08:39:14;;;;;;;15.33;6.77;;;-2.50;99.90;;;;;;4988963;28;20448;-67
2021/12/22 08:41:41;;;;;;;18.00;7.67;;;-2.50;99.90;;;;;;4993106;28;20441;-67
2021/12/22 08:44:10;;;;;;;17.50;8.27;;;-2.40;99.90;;;;;;4984441;28;20468;-69
2021/12/22 08:46:40;;;;;;;15.07;7.50;;;-2.40;99.90;;;;;;4982484;28;20506;-70
2021/12/22 08:49:07;;;;;;;20.27;7.77;;;-2.30;99.90;;;;;;4989106;28;20451;-68
2021/12/22 08:51:36;;;;;;;17.03;7.57;;;-2.20;99.90;;;;;;4992546;28;20444;-69
2021/12/22 08:54:03;;;;;;;22.37;10.30;;;-2.10;99.90;;;;;;4985854;28;20476;-68
2021/12/22 08:56:30;;;;;;;20.83;10.27;;;-2.00;99.90;;;;;;4985763;28;20643;-68
2021/12/22 08:58:57;;;;;;;20.50;9.87;;;-1.80;99.90;;;;;;4987529;28;20447;-70
2021/12/22 09:01:25;;;;;;;20.23;9.80;;;-1.60;99.90;;;;;;4987003;28;20452;-69
2021/12/22 09:03:53;;;;;;;20.37;9.77;;;-1.40;99.90;;;;;;4986095;28;20493;-72
2021/12/22 09:06:20;;;;;;;30.90;10.93;;;-1.40;99.90;;;;;;4990732;28;20491;-72
2021/12/22 09:08:46;;;;;;;23.33;11.20;;;-1.30;99.90;;;;;;4989046;28;20448;-69
2021/12/22 09:11:13;;;;;;;24.80;12.37;;;-1.20;99.90;;;;;;4983104;28;20515;-69
2021/12/22 09:13:41;;;;;;;22.93;12.20;;;-1.10;99.90;;;;;;4987370;28;20506;-69
2021/12/22 09:16:09;;;;;;;22.20;12.27;;;-0.90;99.90;;;;;;4986654;28;20468;-71
2021/12/22 09:18:36;;;;;;;26.23;12.27;;;-0.80;99.90;;;;;;4959841;28;20568;-70
2021/12/22 09:21:05;;;;;;;27.10;12.60;;;-0.70;99.90;;;;;;4984472;28;21188;-70
2021/12/22 09:23:31;;;;;;;26.63;13.10;;;-0.60;99.90;;;;;;4990034;28;20598;-69
2021/12/22 09:25:58;;;;;;;23.80;12.30;;;-0.40;99.90;;;;;;4988869;28;20499;-72
2021/12/22 09:28:25;;;;;;;30.00;12.20;;;-0.30;99.90;;;;;;4988882;28;20213;-69
2021/12/22 09:30:51;;;;;;;23.07;12.27;;;-0.20;99.90;;;;;;5005975;28;20209;-69
2021/12/22 09:33:19;;;;;;;21.47;12.07;;;-0.20;99.90;;;;;;4987190;28;20268;-71
2021/12/22 09:35:48;;;;;;;25.70;12.90;;;0.00;99.90;;;;;;4981639;28;21496;-66
2021/12/22 09:38:16;;;;;;;25.20;12.37;;;0.10;99.90;;;;;;4982421;28;20206;-68
2021/12/22 09:40:44;;;;;;;20.80;11.53;;;0.10;99.90;;;;;;4987554;28;20689;-68
2021/12/22 09:43:11;;;;;;;26.17;12.53;;;0.10;99.90;;;;;;4991180;28;20225;-73
2021/12/22 09:45:44;;;;;;;22.43;11.67;;;0.20;99.90;;;;;;4989063;28;20224;-69
2021/12/22 09:50:53;;;;;;;22.53;11.87;;;0.30;99.90;;;;;;4989985;28;20504;-70
2021/12/22 09:53:23;;;;;;;20.63;10.67;;;0.40;99.90;;;;;;4986713;28;20720;-66
2021/12/22 09:55:50;;;;;;;21.23;10.73;;;0.30;99.90;;;;;;4990601;28;20216;-68
2021/12/22 09:58:17;;;;;;;21.47;11.37;;;0.30;99.90;;;;;;4986391;28;20201;-68
2021/12/22 10:00:45;;;;;;;21.07;11.63;;;0.40;99.90;;;;;;4990719;28;20691;-69
2021/12/22 10:03:13;;;;;;;22.50;11.00;;;0.50;99.90;;;;;;4991622;28;20216;-68
2021/12/22 10:05:42;;;;;;;21.37;10.30;;;0.50;99.90;;;;;;4989384;28;20631;-67
2021/12/22 10:08:16;;;;;;;23.67;10.93;;;0.50;99.90;;;;;;4986456;28;20244;-69
2021/12/22 10:10:47;;;;;;;20.33;10.47;;;0.50;99.90;;;;;;4991591;28;20197;-71
2021/12/22 10:13:16;;;;;;;23.70;11.10;;;0.70;99.90;;;;;;4976093;28;20700;-68
2021/12/22 10:15:43;;;;;;;18.23;10.03;;;0.70;99.90;;;;;;4980601;28;20445;-68
2021/12/22 10:18:27;;;;;;;21.77;10.80;;;0.70;99.90;;;;;;4987155;28;20197;-67
2021/12/22 10:21:21;;;;;;;22.70;10.37;;;0.60;99.90;;;;;;4962155;28;20221;-68
2021/12/22 10:23:51;;;;;;;23.27;11.70;;;0.60;99.90;;;;;;4988376;28;20637;-67
2021/12/22 10:26:20;;;;;;;21.20;10.37;;;0.70;99.90;;;;;;4959794;28;20233;-69
2021/12/22 10:29:00;;;;;;;24.77;11.27;;;0.80;99.90;;;;;;4988815;28;20204;-69
2021/12/22 10:31:41;;;;;;;18.00;10.17;;;0.90;99.90;;;;;;4986159;28;20213;-71
2021/12/22 10:34:27;;;;;;;23.27;11.57;;;0.90;99.90;;;;;;4983907;28;20309;-69
2021/12/22 10:36:55;;;;;;;20.53;11.23;;;1.00;99.90;;;;;;4989741;28;20252;-68
2021/12/22 10:39:27;;;;;;;23.07;11.00;;;1.20;99.90;;;;;;4989982;28;20209;-72
2021/12/22 10:42:07;;;;;;;21.50;10.27;;;1.30;99.90;;;;;;4985504;28;20447;-67
2021/12/22 10:44:39;;;;;;;19.00;9.63;;;1.20;99.90;;;;;;4990221;28;20719;-67
2021/12/22 10:47:22;;;;;;;18.90;10.40;;;1.20;99.90;;;;;;4983681;28;20199;-69
2021/12/22 10:50:00;;;;;;;18.80;11.03;;;1.20;99.90;;;;;;4988251;28;20198;-69
2021/12/22 10:52:27;;;;;;;21.43;10.53;;;1.10;99.90;;;;;;4983632;28;20669;-68
2021/12/22 10:55:13;;;;;;;20.10;10.97;;;1.10;99.90;;;;;;4983432;28;20546;-68
2021/12/22 10:57:43;;;;;;;20.57;11.27;;;1.20;99.90;;;;;;4983257;28;20204;-69
2021/12/22 11:00:20;;;;;;;21.63;11.33;;;1.30;99.90;;;;;;4988314;28;20253;-69
2021/12/22 11:03:08;;;;;;;23.67;10.63;;;1.30;99.90;;;;;;4978486;28;20204;-70
2021/12/22 11:05:47;;;;;;;17.80;10.50;;;1.30;99.90;;;;;;4987919;28;20258;-68
2021/12/22 11:08:32;;;;;;;24.73;10.30;;;1.20;99.90;;;;;;4989234;28;20208;-69
2021/12/22 11:11:10;;;;;;;18.87;10.70;;;1.10;99.90;;;;;;4986692;28;20201;-64
2021/12/22 11:13:36;;;;;;;23.03;10.53;;;1.00;99.90;;;;;;4989451;28;20221;-67
2021/12/22 11:16:13;;;;;;;19.67;10.07;;;1.00;99.90;;;;;;4981293;28;20211;-68
2021/12/22 11:18:40;;;;;;;18.87;9.73;;;1.00;99.90;;;;;;4976225;28;20208;-66
2021/12/22 11:21:13;;;;;;;22.27;11.07;;;1.00;99.90;;;;;;4990019;28;20207;-67
2021/12/22 11:23:40;;;;;;;25.17;10.80;;;1.10;99.90;;;;;;4986980;28;20217;-69
2021/12/22 11:26:08;;;;;;;21.67;10.70;;;1.10;99.90;;;;;;4989940;28;20226;-68
2021/12/22 11:28:35;;;;;;;20.70;11.20;;;1.30;99.90;;;;;;4986318;28;20265;-69
2021/12/22 11:31:06;;;;;;;22.13;10.97;;;1.40;99.90;;;;;;4988415;28;20193;-71
2021/12/22 11:33:34;;;;;;;19.70;10.30;;;1.30;99.90;;;;;;4989588;28;20709;-68
2021/12/22 11:36:02;;;;;;;21.73;10.60;;;1.40;99.90;;;;;;4989462;28;20248;-68
2021/12/22 11:38:30;;;;;;;21.17;10.77;;;1.40;99.90;;;;;;4979697;28;20205;-68
2021/12/22 11:41:14;;;;;;;20.17;10.30;;;1.40;99.90;;;;;;4984789;28;20213;-71
2021/12/22 11:43:43;;;;;;;25.40;11.57;;;1.50;99.90;;;;;;4991076;28;20697;-69
2021/12/22 11:46:11;;;;;;;23.13;11.07;;;1.60;99.90;;;;;;4985800;28;20245;-69
2021/12/22 11:48:39;;;;;;;19.07;10.20;;;1.70;99.90;;;;;;4981423;28;20202;-71
2021/12/22 11:51:25;;;;;;;20.00;10.83;;;1.80;99.90;;;;;;4990406;28;20708;-70
2021/12/22 11:53:57;;;;;;;21.57;10.80;;;1.90;99.90;;;;;;4984462;28;20210;-68
2021/12/22 11:56:34;;;;;;;18.97;10.67;;;1.90;99.90;;;;;;4986975;28;20230;-71
2021/12/22 11:59:01;;;;;;;22.83;10.80;;;2.00;99.90;;;;;;4988583;28;20264;-69
2021/12/22 12:01:28;;;;;;;19.17;10.40;;;2.10;99.90;;;;;;4988249;28;20231;-69
2021/12/22 12:04:14;;;;;;;17.63;10.30;;;2.20;99.90;;;;;;4989279;28;20227;-67
2021/12/22 12:06:49;;;;;;;20.70;10.00;;;2.30;99.90;;;;;;4988663;28;20223;-70
2021/12/22 12:09:21;;;;;;;23.03;10.50;;;2.50;99.90;;;;;;4989969;28;20688;-68
2021/12/22 12:11:54;;;;;;;18.67;9.90;;;2.50;99.90;;;;;;4991209;28;20253;-68
2021/12/22 12:14:54;;;;;;;18.50;10.40;;;2.50;99.90;;;;;;4989385;28;20246;-67
2021/12/22 12:23:28;;;;;;;20.70;10.20;;;2.50;99.90;;;;;;4985206;28;20565;-67
2021/12/22 12:25:56;;;;;;;20.43;10.33;;;2.60;99.90;;;;;;4985144;28;20231;-68
2021/12/22 12:28:27;;;;;;;19.30;11.07;;;2.70;99.90;;;;;;4985204;28;20200;-68
2021/12/22 12:30:59;;;;;;;22.17;12.10;;;2.60;99.90;;;;;;4986550;28;20210;-68
2021/12/22 12:33:28;;;;;;;28.67;13.17;;;2.60;99.90;;;;;;4985553;28;20217;-70
2021/12/22 12:36:01;;;;;;;23.50;11.20;;;2.60;99.90;;;;;;4985849;28;20668;-72
2021/12/22 12:38:40;;;;;;;19.97;10.57;;;2.70;99.90;;;;;;4989828;28;20201;-68
2021/12/22 12:41:11;;;;;;;22.40;11.70;;;2.60;99.90;;;;;;4986249;28;20196;-68
2021/12/22 12:43:48;;;;;;;22.27;10.67;;;2.70;99.90;;;;;;4989207;28;20316;-68
2021/12/22 12:46:37;;;;;;;20.50;10.83;;;2.70;99.90;;;;;;4974696;28;20220;-68
2021/12/22 12:49:04;;;;;;;19.57;10.13;;;2.70;99.90;;;;;;4985857;28;20684;-71
2021/12/22 12:51:37;;;;;;;22.50;10.40;;;2.80;99.90;;;;;;4987248;28;20556;-68
2021/12/22 12:54:09;;;;;;;20.83;10.53;;;2.90;99.90;;;;;;4992382;28;20220;-67
2021/12/22 12:56:38;;;;;;;19.10;10.10;;;3.00;99.90;;;;;;4993659;28;20212;-68
2021/12/22 12:59:06;;;;;;;19.53;10.47;;;2.90;99.90;;;;;;4992564;28;20255;-68
2021/12/22 13:01:57;;;;;;;19.20;10.30;;;2.70;99.90;;;;;;4991357;28;20211;-66
2021/12/22 13:04:31;;;;;;;20.47;10.90;;;2.50;99.90;;;;;;4980455;28;20664;-68
2021/12/22 13:07:03;;;;;;;21.23;10.67;;;2.50;99.90;;;;;;4985802;28;20226;-68
2021/12/22 13:09:43;;;;;;;20.93;10.73;;;2.40;99.90;;;;;;4983441;28;20574;-68
2021/12/22 13:17:44;;;;;;;21.90;10.50;;;2.40;99.90;;;;;;4992181;28;20212;-68
2021/12/22 13:20:14;;;;;;;19.53;10.80;;;2.50;99.90;;;;;;4986079;28;20210;-70
2021/12/22 13:22:46;;;;;;;18.97;10.07;;;2.60;99.90;;;;;;4992274;28;20253;-71
2021/12/22 13:25:25;;;;;;;22.13;11.90;;;2.70;99.90;;;;;;4987324;28;20247;-71
2021/12/22 13:27:53;;;;;;;22.70;11.17;;;2.60;99.90;;;;;;4983897;28;20836;-68